Beta version 0.4

Airbus 330-200

№RA-AST21

Boeing 737-800 NG

№RA-ART04

Airbus 320-200

№RA-AST51

Airbus 320-200

№RA-AST50

Airbus 330-200

№RA-AST21

Airbus 330-200

№RA-AST21

Airbus 320-200

№RA-AST50

Туполев - 154М

№RA-AST25

  • Aerostream Network
  • Aerostream Network
  • Aerostream Network
  • Aerostream Network
  • Aerostream Network
  • Aerostream Network
  • Aerostream Network
  • Aerostream Network
Информация о пилоте

Номер рейса Борт Аэропорт вылета Погодные условия вылета Эшелон Аэропорт прилёта Погодные условия прилёта Вертикальная скорость в момент касания Особенности полёта
ART1056 / 28.11.2011RA-AST21RJTTRJTT 272030Z 02005KT 9999 FEW030 BKN/// 11/04 Q1025 NOSIG RMK 1CU030 A3027 FL380ULLIULLI 280730Z 29014G20MPS 9999 OVC019 02/M01 Q0978 28190062 78////// TEMPO 30015G23MPS -315 Вполне спокойный полет, не считая сильного ветра после вылета из Токио, на эшелоне 144 узла, а так же отказа гидравлики закрылок на снижении (вплоть до момента касания оставались в 1 позиции). В итоге немного грубая посадка, но пассажиры остались... жив... довольны.
ART1055 / 26.11.2011RA-AST21ULLIULLI 251900Z 22003G08MPS 9999 OVC018 07/05 Q1003 28290052 78////// TEMPO 18007G12MPS ARR RWY 28L / DEP RWY 28L / TRL FL050 / TA 3000FTFL370RJTTRJTT 260500Z 08004KT 9999 FEW030 BKN045 12/M00 Q1027 NOSIG RMK 1CU030 5SC045 A3034 -231На вылете работа с ULLI_TWR на английском. На эшелоне догнал борт, успешно разошлись. В сотальном полет прошел штатно, без замечаний.
ART165RA-AST50ULLIULLI 111500Z 36003MPS 9999 -DZ OVC008 04/02 Q1034 28290052 78////// NOSIG ARR RWY 28L / DEP RWY 28L / TRL FL049 / TA 3000FTS1010USRRUSRR 111500Z 19005MPS 2800 -SN OVC007 M12/M13 Q1008 TEMPO 1000 SN OVC004 RMK QFE750 25////45 -48Без замечаний
AST1056RA-AST21RJTT380/381ULLI-290(NO ATC) На подходе вылетел сим...
AST157RA-AST50ULLIULLI 111700Z 25005MPS 9999 -SHRA SCT030CB BKN043 OVC066 07/05 Q0988 28////// 78290052 NOSIG S1060/FL340EPWAEPWA 111830Z 27011KT 9999 SCT010 BKN026 12/11 Q1006 BECMG BKN010-261(NO ATC) Плохие погодные условия на вылете из Питера. Сильная гроза и порывы ветра. На подходе к Варшаве был сильный боковой ветер.
AST1055RA-AST21ULLIULLI 081700Z 00000MPS CAVOK 08/06 Q1001 88090072 NOSIG 11100 mRJTTRJTT 090130Z 03009KT 9999 FEW030 20/13 Q1025 BECMG FM0200 08008KT RMK 1CU030 A3029-80Питерский контроль порадовал английским ФРО (Отдельное спасибо позиции ULLL_CTR). Штатный полет, без происшествий. На заходе в Токио под крыло подул слабый ветерок, но это не помешало совершить красивую посадку.
AST125RA-AST21ULLI-11100 mUSRR--30Штатный полет, небольшой туман в а/п прилета.
UTC
Календарь событий
Статистика авиакомпании
Новые пилоты
Метеобрифинг
Для получения метара введите 4 буквы ICAO кода аэропорта и нажмите "Получить". Также можно ввести несколько аэропортов через пробел (Например: ULLI URRR @WY). Список аэропортов в этом файле, stations.txt.
     Одной строкой
 Расшифрованный

 METAR   
 TAF (прогноз)

 
Обратная связь

По всем вопросам обращайтесь по адресу inbox@http://aerostream-va.ru

Голосование
Rambler's Top100